Time;durP1;ratioP1;P1;durP2;ratioP2;P2;SDS_P1;SDS_P2;PMS_P1;PMS_P2;Temp;Humidity;BMP_temperature;BMP_pressure;BME280_temperature;BME280_humidity;BME280_pressure;Samples;Min_cycle;Max_cycle;Signal;HPM_P1;HPM_P2
2021/11/03 00:00:55;;;;;;;199.30;113.43;;;;;;;7.21;77.11;94785.75;5023537;28;20444;-63
2021/11/03 00:03:22;;;;;;;197.60;110.47;;;;;;;7.40;76.37;94800.91;5022039;28;20464;-63
2021/11/03 00:05:50;;;;;;;236.37;131.47;;;;;;;7.33;75.68;94812.53;5005872;28;20455;-63
2021/11/03 00:08:20;;;;;;;239.87;131.30;;;;;;;7.21;74.39;94806.63;5019371;28;20945;-63
2021/11/03 00:10:49;;;;;;;228.47;128.67;;;;;;;7.13;75.03;94786.94;5011370;28;20495;-63
2021/11/03 00:13:19;;;;;;;245.87;135.37;;;;;;;7.02;76.64;94800.81;5024621;28;21090;-64
2021/11/03 00:15:47;;;;;;;238.63;129.87;;;;;;;7.17;75.51;94799.25;5029569;28;20458;-62
2021/11/03 00:18:14;;;;;;;238.27;129.93;;;;;;;6.95;75.59;94811.38;5026438;28;20540;-64
2021/11/03 00:20:41;;;;;;;212.80;119.40;;;;;;;7.05;75.25;94821.97;5029644;28;20980;-63
2021/11/03 00:23:08;;;;;;;221.77;117.67;;;;;;;6.98;75.34;94810.13;5025508;28;20503;-62
2021/11/03 00:25:40;;;;;;;200.43;113.17;;;;;;;7.15;74.77;94822.16;5023058;28;20953;-62
2021/11/03 00:28:08;;;;;;;201.13;113.90;;;;;;;7.28;74.79;94831.47;5029814;28;20451;-63
2021/11/03 00:30:37;;;;;;;199.40;113.90;;;;;;;7.09;74.30;94838.75;5028035;28;20543;-62
2021/11/03 00:33:04;;;;;;;203.67;112.60;;;;;;;7.01;74.97;94839.09;5015628;28;20447;-62
2021/11/03 00:35:31;;;;;;;220.87;127.37;;;;;;;6.89;74.67;94841.00;5019686;28;20957;-62
2021/11/03 00:37:58;;;;;;;223.30;124.67;;;;;;;7.08;74.51;94831.94;5021739;28;20510;-62
2021/11/03 00:40:27;;;;;;;240.50;129.37;;;;;;;6.87;75.51;94845.63;5014916;28;21179;-63
2021/11/03 00:42:53;;;;;;;243.90;129.47;;;;;;;6.82;76.48;94848.16;5017576;28;20472;-63
2021/11/03 00:45:21;;;;;;;252.17;129.53;;;;;;;6.91;76.82;94861.59;5017821;28;20440;-64
2021/11/03 00:47:51;;;;;;;273.97;129.37;;;;;;;6.81;78.04;94859.56;5017167;28;20450;-64
2021/11/03 00:50:20;;;;;;;297.53;130.97;;;;;;;6.91;77.54;94857.16;5002725;28;20519;-64
2021/11/03 00:52:48;;;;;;;409.40;134.33;;;;;;;6.62;78.82;94854.78;5017411;28;20451;-64
2021/11/03 00:55:16;;;;;;;249.17;109.03;;;;;;;6.80;78.88;94849.41;5027435;28;20444;-62
2021/11/03 00:57:44;;;;;;;272.67;116.20;;;;;;;6.41;80.83;94855.41;5018742;28;20971;-65
2021/11/03 01:00:13;;;;;;;251.27;112.53;;;;;;;6.58;80.34;94851.84;5022889;28;20514;-63
2021/11/03 01:02:40;;;;;;;461.97;124.97;;;;;;;6.29;80.61;94860.66;5007622;28;20509;-63
2021/11/03 01:05:12;;;;;;;262.87;107.80;;;;;;;6.60;80.23;94870.66;5018264;28;20442;-63
2021/11/03 01:07:39;;;;;;;208.50;101.43;;;;;;;6.64;80.24;94861.31;5011260;28;20494;-63
2021/11/03 01:10:07;;;;;;;239.10;100.70;;;;;;;6.72;79.47;94862.78;4997825;28;21225;-62
2021/11/03 01:12:35;;;;;;;221.83;100.17;;;;;;;6.62;79.18;94868.59;5021329;28;20846;-63
2021/11/03 01:15:05;;;;;;;178.37;91.40;;;;;;;6.45;80.82;94872.94;5023206;28;20501;-62
2021/11/03 01:17:33;;;;;;;172.17;89.07;;;;;;;6.46;80.63;94874.50;5020330;28;20434;-63
2021/11/03 01:20:06;;;;;;;191.83;94.47;;;;;;;6.39;81.47;94873.84;5026424;28;20453;-62
2021/11/03 01:22:34;;;;;;;293.53;103.43;;;;;;;6.40;81.15;94879.84;5028002;28;20436;-63
2021/11/03 01:25:01;;;;;;;157.87;82.73;;;;;;;6.53;80.88;94879.59;5021873;28;20440;-62
2021/11/03 01:27:28;;;;;;;157.97;85.27;;;;;;;6.71;80.09;94872.41;5021919;28;20544;-62
2021/11/03 01:29:55;;;;;;;193.87;92.60;;;;;;;6.70;80.21;94888.25;5029688;28;20478;-62
2021/11/03 01:32:22;;;;;;;164.20;81.20;;;;;;;6.79;80.55;94879.84;5019642;28;20524;-64
2021/11/03 01:34:49;;;;;;;163.17;78.60;;;;;;;6.73;80.71;94891.19;5017818;28;20563;-62
2021/11/03 01:37:16;;;;;;;165.77;79.40;;;;;;;6.78;80.89;94883.50;5021351;28;20544;-63
2021/11/03 01:39:43;;;;;;;152.37;75.23;;;;;;;6.84;80.29;94898.16;5022657;28;20447;-65
2021/11/03 01:42:10;;;;;;;152.43;72.97;;;;;;;6.70;81.53;94902.06;5029355;28;20448;-64
2021/11/03 01:44:37;;;;;;;132.53;68.20;;;;;;;6.82;81.52;94902.03;5013958;28;20536;-63
2021/11/03 01:47:42;;;;;;;145.67;66.07;;;;;;;6.72;81.79;94897.44;5011170;28;20813;-63
2021/11/03 01:50:37;;;;;;;236.47;70.10;;;;;;;6.67;81.24;94902.53;5015611;28;20486;-63
2021/11/03 01:53:10;;;;;;;164.30;58.30;;;;;;;6.88;81.47;94911.50;5011034;28;20470;-62
2021/11/03 01:55:45;;;;;;;124.00;54.60;;;;;;;7.03;80.79;94912.59;5030247;28;20475;-63
2021/11/03 01:58:16;;;;;;;105.47;53.13;;;;;;;6.89;81.41;94924.34;5031716;28;20582;-63
2021/11/03 02:00:45;;;;;;;133.00;52.47;;;;;;;6.90;81.27;94922.50;5030411;28;20505;-63
2021/11/03 02:03:18;;;;;;;143.57;54.97;;;;;;;7.05;80.44;94918.38;5019427;28;20525;-64
2021/11/03 02:05:55;;;;;;;120.43;51.03;;;;;;;6.94;80.51;94887.16;5021430;28;20487;-63
2021/11/03 02:08:23;;;;;;;105.97;50.53;;;;;;;7.04;80.45;94922.00;5020362;28;20451;-64
2021/11/03 02:10:50;;;;;;;186.50;54.60;;;;;;;7.13;78.83;94923.19;5017710;28;20476;-63
2021/11/03 02:13:17;;;;;;;184.77;58.73;;;;;;;7.12;79.60;94926.84;5007454;28;20518;-63
2021/11/03 02:15:46;;;;;;;156.73;52.70;;;;;;;7.00;80.33;94935.72;5042350;28;20444;-63
2021/11/03 02:18:17;;;;;;;85.03;46.30;;;;;;;6.95;80.61;94925.22;5027058;28;20436;-63
2021/11/03 02:20:47;;;;;;;106.47;50.13;;;;;;;6.92;80.21;94936.09;5029770;28;20439;-63
2021/11/03 02:23:27;;;;;;;262.60;57.53;;;;;;;6.91;80.10;94940.53;5021630;28;20539;-63
2021/11/03 02:26:23;;;;;;;102.73;46.70;;;;;;;6.95;80.55;94952.03;5017670;28;20535;-62
2021/11/03 02:28:51;;;;;;;180.67;52.93;;;;;;;7.00;80.00;94957.38;5021831;28;20487;-62
2021/11/03 02:31:30;;;;;;;114.43;48.70;;;;;;;7.02;80.10;94952.72;5029592;28;20503;-63
2021/11/03 02:33:57;;;;;;;103.80;47.60;;;;;;;7.13;79.96;94957.06;5027402;28;20451;-63
2021/11/03 02:36:24;;;;;;;137.93;52.47;;;;;;;7.01;80.24;94961.53;5024483;28;20531;-62
2021/11/03 02:38:51;;;;;;;218.00;55.80;;;;;;;6.84;81.10;94957.31;5010689;28;20947;-62
2021/11/03 02:41:25;;;;;;;94.03;48.27;;;;;;;6.78;81.75;94953.81;5011559;28;21037;-63
2021/11/03 02:44:02;;;;;;;73.70;46.90;;;;;;;6.87;81.76;94960.22;5010550;28;20479;-63
2021/11/03 02:46:30;;;;;;;96.43;47.63;;;;;;;6.84;81.74;94965.13;5024429;28;20494;-63
2021/11/03 02:48:56;;;;;;;86.83;46.17;;;;;;;6.78;81.84;94960.81;5015582;28;20534;-64
2021/11/03 02:51:35;;;;;;;210.97;51.20;;;;;;;7.00;81.10;94959.97;5019184;28;20587;-64
2021/11/03 02:54:07;;;;;;;189.53;51.33;;;;;;;7.07;80.64;94955.41;5017916;28;20454;-62
2021/11/03 02:56:46;;;;;;;286.27;54.47;;;;;;;6.82;80.30;94954.94;5018714;28;20450;-64
2021/11/03 02:59:16;;;;;;;222.63;52.83;;;;;;;6.65;81.22;94943.63;5016793;28;20442;-65
2021/11/03 03:01:47;;;;;;;137.33;50.40;;;;;;;6.87;81.08;94965.44;5016080;28;20441;-63
2021/11/03 03:04:26;;;;;;;171.77;54.30;;;;;;;6.86;81.40;94961.22;5016241;28;20440;-63
2021/11/03 03:06:55;;;;;;;80.63;44.80;;;;;;;6.96;81.09;94966.66;5014565;28;20472;-63
2021/11/03 03:09:23;;;;;;;217.40;52.27;;;;;;;7.07;80.41;94981.47;5018156;28;20482;-64
2021/11/03 03:11:57;;;;;;;82.43;47.03;;;;;;;7.04;80.37;94981.91;5021854;28;20590;-63
2021/11/03 03:14:28;;;;;;;135.93;52.50;;;;;;;7.11;80.74;94985.19;5004450;28;20448;-63
2021/11/03 03:16:57;;;;;;;144.33;50.97;;;;;;;7.05;80.19;94983.50;5031128;28;20498;-63
2021/11/03 03:19:24;;;;;;;186.73;52.97;;;;;;;7.03;80.23;94980.34;5037950;28;20528;-62
2021/11/03 03:21:52;;;;;;;162.20;45.63;;;;;;;6.99;81.03;94984.44;5029320;28;20470;-62
2021/11/03 03:24:19;;;;;;;94.10;42.47;;;;;;;7.00;81.14;94980.81;5029203;28;20458;-63
2021/11/03 03:26:47;;;;;;;84.20;43.63;;;;;;;7.17;81.02;94976.44;5010080;28;20194;-62
2021/11/03 03:29:16;;;;;;;129.17;45.90;;;;;;;6.76;81.66;94970.66;5009366;28;20552;-63
2021/11/03 03:31:44;;;;;;;120.40;47.77;;;;;;;6.68;82.41;94984.06;5008386;28;20546;-63
2021/11/03 03:34:18;;;;;;;213.53;46.37;;;;;;;6.93;82.27;94985.34;5024907;28;20447;-62
2021/11/03 03:36:49;;;;;;;91.73;43.47;;;;;;;7.03;81.15;95003.78;5017288;28;20627;-63
2021/11/03 03:39:18;;;;;;;101.43;41.93;;;;;;;6.96;81.32;95005.72;5017325;28;20465;-62
2021/11/03 03:41:52;;;;;;;90.17;44.33;;;;;;;6.80;82.35;94990.81;5004547;28;20441;-62
2021/11/03 03:44:20;;;;;;;75.30;40.93;;;;;;;6.95;81.80;94998.94;5009720;28;20446;-63
2021/11/03 03:46:51;;;;;;;87.60;41.70;;;;;;;6.82;82.14;94996.59;5027313;28;20451;-63
2021/11/03 03:49:18;;;;;;;79.37;40.00;;;;;;;6.77;82.03;94990.50;5019460;28;20449;-63
2021/11/03 03:51:51;;;;;;;70.00;40.70;;;;;;;6.86;81.93;95010.72;5024149;28;20920;-63
2021/11/03 03:54:19;;;;;;;145.13;45.33;;;;;;;6.82;81.72;95003.59;5023762;28;20471;-63
2021/11/03 03:56:46;;;;;;;75.50;40.17;;;;;;;6.74;82.53;95015.16;5028476;28;20518;-63
2021/11/03 03:59:13;;;;;;;165.40;45.67;;;;;;;6.87;81.77;95022.75;5015433;28;20492;-63
2021/11/03 04:01:43;;;;;;;105.17;42.63;;;;;;;6.76;82.27;95015.72;5029585;28;20448;-64
2021/11/03 04:04:11;;;;;;;89.57;41.40;;;;;;;6.84;82.82;95022.41;5018007;28;20440;-62
2021/11/03 04:06:39;;;;;;;90.40;43.37;;;;;;;6.78;82.47;95024.13;5004573;28;20570;-63
2021/11/03 04:09:09;;;;;;;78.00;41.53;;;;;;;6.80;82.58;95027.28;5013411;28;20641;-62
2021/11/03 04:11:38;;;;;;;123.90;44.67;;;;;;;6.93;82.05;95037.44;5016252;28;20480;-62
2021/11/03 04:14:08;;;;;;;102.70;45.50;;;;;;;6.79;82.53;95036.09;5018165;28;20467;-62
2021/11/03 04:16:37;;;;;;;75.57;42.57;;;;;;;7.02;82.00;95030.88;5028132;28;21118;-62
2021/11/03 04:19:05;;;;;;;171.73;48.90;;;;;;;6.87;81.80;95045.38;5014419;28;20479;-64
2021/11/03 04:21:33;;;;;;;75.80;42.40;;;;;;;7.03;82.12;95048.06;5016407;28;20727;-64
2021/11/03 04:24:20;;;;;;;120.90;41.07;;;;;;;7.09;80.74;95047.16;5015728;28;20452;-63
2021/11/03 04:26:48;;;;;;;136.67;44.50;;;;;;;6.86;81.91;95021.13;5020312;28;20499;-62
2021/11/03 04:29:20;;;;;;;126.67;41.83;;;;;;;6.74;82.38;95038.59;5011105;28;20892;-63
2021/11/03 04:31:48;;;;;;;94.57;40.33;;;;;;;6.76;81.72;95046.97;5042778;28;20491;-62
2021/11/03 04:34:16;;;;;;;114.53;42.70;;;;;;;6.75;82.37;95032.34;5014616;28;20463;-63
2021/11/03 04:36:46;;;;;;;86.73;39.87;;;;;;;6.75;82.18;95028.97;5015305;28;20450;-63
2021/11/03 04:39:13;;;;;;;161.43;42.80;;;;;;;6.91;81.85;95033.50;5017089;28;20448;-63
2021/11/03 04:41:44;;;;;;;85.50;39.53;;;;;;;6.73;82.02;95037.00;5024677;28;20539;-63
2021/11/03 04:44:12;;;;;;;96.47;40.70;;;;;;;6.97;81.13;95048.22;5027477;28;20475;-63
2021/11/03 04:46:40;;;;;;;60.60;36.23;;;;;;;6.95;81.22;95048.41;5028069;28;20535;-64
2021/11/03 04:49:09;;;;;;;152.93;42.70;;;;;;;6.92;80.67;95051.50;5017577;28;20442;-64
2021/11/03 04:51:37;;;;;;;119.53;40.33;;;;;;;6.79;80.96;95041.31;5021682;28;20503;-63
2021/11/03 04:54:05;;;;;;;98.50;38.00;;;;;;;7.09;80.57;95057.59;5027749;28;20444;-63
2021/11/03 04:56:33;;;;;;;140.90;44.67;;;;;;;6.64;82.04;95063.63;5024499;28;20448;-63
2021/11/03 04:59:00;;;;;;;66.93;36.93;;;;;;;6.70;82.76;95066.09;5027078;28;20898;-62
2021/11/03 05:01:28;;;;;;;118.73;39.23;;;;;;;6.69;82.67;95061.94;5023279;28;20495;-63
2021/11/03 05:03:59;;;;;;;63.60;35.43;;;;;;;6.67;84.82;95058.75;5026935;28;20474;-63
2021/11/03 05:06:30;;;;;;;98.57;38.50;;;;;;;6.77;83.45;95063.41;5026953;28;20843;-63
2021/11/03 05:08:59;;;;;;;130.60;42.83;;;;;;;6.43;84.06;95064.97;5027850;28;20878;-62
2021/11/03 05:11:27;;;;;;;80.30;36.60;;;;;;;6.61;83.98;95080.47;5026917;28;20467;-62
2021/11/03 05:13:54;;;;;;;61.87;33.60;;;;;;;6.66;83.81;95077.22;5027319;28;20475;-63
2021/11/03 05:16:26;;;;;;;85.33;35.97;;;;;;;6.62;83.22;95066.47;5022505;28;20498;-61
2021/11/03 05:18:56;;;;;;;60.77;32.73;;;;;;;6.89;82.40;95067.59;5014697;28;20440;-62
2021/11/03 05:21:24;;;;;;;86.00;36.27;;;;;;;6.44;83.28;95071.75;5026931;28;21047;-62
2021/11/03 05:23:54;;;;;;;68.77;35.03;;;;;;;6.65;82.21;95079.03;5014006;28;20486;-63
2021/11/03 05:26:23;;;;;;;129.43;35.67;;;;;;;6.73;81.89;95078.66;5028328;28;20957;-63
2021/11/03 05:28:54;;;;;;;165.87;37.67;;;;;;;6.57;81.94;95079.34;5024092;28;20471;-62
2021/11/03 05:31:22;;;;;;;101.63;36.23;;;;;;;6.35;83.05;95083.50;5028077;28;20483;-60
2021/11/03 05:33:52;;;;;;;53.87;33.90;;;;;;;6.45;83.21;95086.38;5028617;28;20438;-63
2021/11/03 05:36:24;;;;;;;88.47;35.80;;;;;;;6.36;82.74;95095.53;5028090;28;20447;-62
2021/11/03 05:38:52;;;;;;;81.07;33.00;;;;;;;6.41;83.85;95089.63;5028370;28;20444;-63
2021/11/03 05:41:19;;;;;;;96.80;34.07;;;;;;;6.35;83.73;95101.72;5028774;28;20450;-63
2021/11/03 05:43:46;;;;;;;76.40;35.13;;;;;;;6.35;83.93;95106.94;5024013;28;20510;-63
2021/11/03 05:46:23;;;;;;;73.90;34.80;;;;;;;6.33;84.75;95111.59;5027594;28;20846;-62
2021/11/03 05:48:51;;;;;;;96.90;35.83;;;;;;;6.42;83.94;95107.66;5027395;28;20509;-64
2021/11/03 05:51:19;;;;;;;76.03;40.70;;;;;;;6.77;83.15;95094.66;5024782;28;20467;-66
2021/11/03 05:53:46;;;;;;;69.93;42.50;;;;;;;6.97;81.41;95103.69;5027210;28;20466;-67
2021/11/03 05:56:13;;;;;;;84.33;46.33;;;;;;;7.13;80.54;95110.03;5027707;28;20443;-65
2021/11/03 05:58:40;;;;;;;56.53;31.63;;;;;;;7.16;80.82;95127.81;5030904;28;20988;-63
2021/11/03 06:01:07;;;;;;;98.90;36.37;;;;;;;6.92;80.06;95134.03;5032205;28;21048;-62
2021/11/03 06:03:36;;;;;;;60.27;32.40;;;;;;;6.85;80.83;95123.75;5031287;28;20432;-63
2021/11/03 06:06:03;;;;;;;73.93;33.53;;;;;;;7.03;80.93;95121.03;5031678;28;20448;-62
2021/11/03 06:08:30;;;;;;;150.83;37.87;;;;;;;6.69;81.07;95119.22;5031133;28;20444;-62
2021/11/03 06:10:59;;;;;;;81.40;34.23;;;;;;;6.98;80.16;95128.75;5020641;28;20459;-61
2021/11/03 06:13:26;;;;;;;157.17;38.20;;;;;;;6.57;81.84;95134.03;5030999;28;20450;-62
2021/11/03 06:15:53;;;;;;;104.60;35.73;;;;;;;6.58;81.96;95135.63;5031732;28;20497;-62
2021/11/03 06:18:20;;;;;;;100.47;35.20;;;;;;;6.59;83.15;95129.38;5031601;28;20475;-63
2021/11/03 06:20:48;;;;;;;76.00;35.90;;;;;;;6.66;83.41;95124.84;5032006;28;20954;-63
2021/11/03 06:23:15;;;;;;;100.40;36.07;;;;;;;6.87;82.79;95132.13;5025914;28;20448;-62
2021/11/03 06:25:42;;;;;;;64.47;36.13;;;;;;;6.86;83.05;95146.16;5023144;28;20456;-63
2021/11/03 06:28:09;;;;;;;72.03;42.97;;;;;;;6.93;82.88;95141.63;5027365;28;20939;-64
2021/11/03 06:30:37;;;;;;;61.90;37.30;;;;;;;6.89;82.79;95140.50;5020894;28;20436;-62
2021/11/03 06:33:06;;;;;;;57.47;35.67;;;;;;;7.01;83.38;95143.91;5030698;28;20690;-64
2021/11/03 06:35:35;;;;;;;82.03;37.20;;;;;;;6.84;82.89;95119.53;5031123;28;20957;-65
2021/11/03 06:38:04;;;;;;;84.50;37.93;;;;;;;6.93;82.50;95149.44;5030986;28;20510;-62
2021/11/03 06:40:32;;;;;;;73.13;36.17;;;;;;;6.89;82.58;95148.34;5031581;28;20440;-63
2021/11/03 06:42:59;;;;;;;101.07;38.90;;;;;;;6.72;84.17;95160.41;5022593;28;20440;-61
2021/11/03 06:45:27;;;;;;;73.50;38.37;;;;;;;6.79;83.71;95148.09;5030029;28;20444;-63
2021/11/03 06:47:55;;;;;;;100.70;41.17;;;;;;;6.85;83.36;95155.00;5030614;28;20440;-62
2021/11/03 06:50:27;;;;;;;97.80;38.57;;;;;;;6.52;85.06;95166.94;5027285;28;20502;-62
2021/11/03 06:52:56;;;;;;;83.33;39.17;;;;;;;6.67;85.02;95167.31;5021907;28;20495;-62
2021/11/03 06:55:25;;;;;;;54.23;33.73;;;;;;;6.86;84.14;95146.16;5013747;28;20445;-62
2021/11/03 06:57:52;;;;;;;50.87;32.03;;;;;;;7.14;82.96;95167.13;5020717;28;20478;-63
2021/11/03 07:00:23;;;;;;;73.03;35.50;;;;;;;7.00;84.88;95173.59;5031335;28;20439;-62
2021/11/03 07:02:50;;;;;;;68.83;35.00;;;;;;;6.76;83.32;95177.19;5022763;28;20451;-63
2021/11/03 07:05:17;;;;;;;115.67;35.30;;;;;;;6.79;83.06;95181.13;5024864;28;20463;-63
2021/11/03 07:07:44;;;;;;;53.50;32.30;;;;;;;7.02;82.43;95158.53;5016400;28;20887;-62
2021/11/03 07:10:25;;;;;;;86.83;36.23;;;;;;;7.02;82.47;95181.97;5018407;28;20527;-63
2021/11/03 07:12:52;;;;;;;218.17;35.97;;;;;;;6.89;82.02;95182.19;5010619;28;20484;-62
2021/11/03 07:15:19;;;;;;;54.17;32.57;;;;;;;7.01;81.03;95175.16;5020577;28;20454;-63
2021/11/03 07:17:46;;;;;;;113.57;36.40;;;;;;;7.13;80.75;95172.56;5028473;28;20829;-62
2021/11/03 07:20:15;;;;;;;84.97;34.30;;;;;;;6.82;81.72;95181.50;5030895;28;20539;-63
2021/11/03 07:22:43;;;;;;;121.20;36.57;;;;;;;6.43;82.81;95179.50;5029358;28;20531;-62
2021/11/03 07:25:13;;;;;;;77.10;33.33;;;;;;;6.91;82.90;95195.78;5017368;28;20472;-62
2021/11/03 07:27:40;;;;;;;61.40;34.40;;;;;;;7.24;81.06;95199.66;5030089;28;20807;-63
2021/11/03 07:30:07;;;;;;;57.80;34.80;;;;;;;7.30;80.36;95198.75;5016210;28;20443;-64
2021/11/03 07:32:34;;;;;;;74.17;36.00;;;;;;;7.35;83.54;95196.25;5030493;28;20847;-64
2021/11/03 07:35:01;;;;;;;57.40;35.33;;;;;;;7.58;83.07;95211.84;5030374;28;20862;-64
2021/11/03 07:37:28;;;;;;;67.63;37.83;;;;;;;7.43;82.23;95211.53;5020424;28;20437;-62
2021/11/03 07:39:55;;;;;;;74.43;36.87;;;;;;;7.35;81.62;95212.69;5024614;28;20451;-63
2021/11/03 07:42:22;;;;;;;85.90;39.00;;;;;;;7.15;82.47;95209.63;5018730;28;20807;-63
2021/11/03 07:44:54;;;;;;;90.47;37.57;;;;;;;7.26;81.77;95208.03;5028981;28;20922;-63
2021/11/03 07:47:21;;;;;;;68.83;37.10;;;;;;;7.34;81.63;95215.50;5029702;28;20440;-62
2021/11/03 07:49:50;;;;;;;65.27;37.23;;;;;;;7.30;83.31;95220.38;5030504;28;20454;-63
2021/11/03 07:52:17;;;;;;;78.53;38.43;;;;;;;7.41;82.52;95218.81;5029551;28;20996;-64
2021/11/03 07:54:44;;;;;;;75.97;38.23;;;;;;;7.29;82.28;95210.19;5029950;28;20458;-64
2021/11/03 07:57:11;;;;;;;76.70;38.27;;;;;;;7.13;82.81;95214.28;5029463;28;20500;-62
2021/11/03 07:59:38;;;;;;;72.50;39.87;;;;;;;7.17;83.07;95224.00;5030153;28;20814;-62
2021/11/03 08:02:06;;;;;;;64.57;38.50;;;;;;;7.51;82.20;95208.59;5029610;28;20522;-63
2021/11/03 08:04:33;;;;;;;66.20;38.70;;;;;;;7.72;84.37;95208.00;5030207;28;20833;-62
2021/11/03 08:07:00;;;;;;;64.37;38.87;;;;;;;7.85;83.77;95200.69;5015309;28;20876;-62
2021/11/03 08:09:27;;;;;;;67.27;40.13;;;;;;;7.86;83.67;95220.56;5030172;28;20443;-63
2021/11/03 08:11:56;;;;;;;63.80;39.27;;;;;;;8.02;83.00;95217.22;5016632;28;20468;-62
2021/11/03 08:14:30;;;;;;;66.30;40.23;;;;;;;8.25;82.78;95205.16;5025390;28;20812;-62
2021/11/03 08:16:59;;;;;;;69.27;41.33;;;;;;;8.41;81.75;95192.13;5029415;28;20444;-62
2021/11/03 08:19:34;;;;;;;64.80;40.30;;;;;;;8.62;80.31;95188.84;5029596;28;20436;-62
2021/11/03 08:22:02;;;;;;;69.97;40.57;;;;;;;8.57;80.57;95180.94;5029487;28;20547;-62
2021/11/03 08:24:29;;;;;;;66.70;40.60;;;;;;;8.36;80.69;95194.66;5029196;28;20440;-63
2021/11/03 08:26:56;;;;;;;72.27;41.97;;;;;;;8.29;79.89;95188.78;5029187;28;20440;-64
2021/11/03 08:29:24;;;;;;;73.00;42.90;;;;;;;8.46;80.42;95184.41;5029899;28;20444;-61
2021/11/03 08:31:55;;;;;;;69.90;42.43;;;;;;;8.34;80.08;95188.88;5023150;28;20465;-63
2021/11/03 08:34:30;;;;;;;76.57;44.80;;;;;;;8.26;80.16;95189.25;5021914;28;20590;-64
2021/11/03 08:37:03;;;;;;;74.70;44.53;;;;;;;8.37;81.16;95175.38;5028432;28;20542;-63
2021/11/03 08:39:32;;;;;;;79.63;47.23;;;;;;;8.23;81.01;95173.25;5029129;28;20447;-63
2021/11/03 08:41:59;;;;;;;74.63;43.80;;;;;;;8.29;81.29;95173.13;5028406;28;20444;-63
2021/11/03 08:44:27;;;;;;;88.60;47.73;;;;;;;8.08;81.94;95171.16;5029068;28;20470;-63
2021/11/03 08:46:55;;;;;;;88.67;51.00;;;;;;;8.54;80.48;95181.38;5028595;28;20467;-63
2021/11/03 08:49:22;;;;;;;85.53;49.47;;;;;;;8.43;80.91;95195.28;5028999;28;20470;-63
2021/11/03 08:51:48;;;;;;;97.20;54.13;;;;;;;8.47;81.56;95187.78;5028240;28;20609;-63
2021/11/03 08:54:18;;;;;;;131.13;78.10;;;;;;;8.75;81.54;95188.56;5028875;28;20830;-63
2021/11/03 08:56:45;;;;;;;101.63;57.53;;;;;;;8.62;81.52;95178.41;5028369;28;21000;-63
2021/11/03 08:59:13;;;;;;;155.70;97.70;;;;;;;8.74;81.64;95181.72;5022655;28;20437;-63
2021/11/03 09:01:44;;;;;;;92.80;53.30;;;;;;;8.67;80.52;95182.91;5008831;28;20501;-64
2021/11/03 09:04:11;;;;;;;93.30;53.87;;;;;;;8.80;79.81;95185.22;5028267;28;20446;-62
2021/11/03 09:06:38;;;;;;;93.53;49.70;;;;;;;8.61;80.69;95187.25;5028803;28;20479;-64
2021/11/03 09:09:06;;;;;;;86.93;49.53;;;;;;;8.93;79.99;95193.56;5029309;28;20448;-63
2021/11/03 09:11:34;;;;;;;82.57;49.40;;;;;;;8.79;80.85;95189.66;5028783;28;20444;-63
2021/11/03 09:14:02;;;;;;;82.97;44.80;;;;;;;8.15;79.97;95197.91;5028726;28;20446;-63
2021/11/03 09:16:30;;;;;;;87.73;47.07;;;;;;;8.27;80.44;95185.59;5023326;28;20449;-63
2021/11/03 09:18:57;;;;;;;86.53;48.33;;;;;;;8.12;82.05;95193.13;5020753;28;20475;-62
2021/11/03 09:21:25;;;;;;;91.10;49.27;;;;;;;8.58;80.89;95182.50;5028192;28;20448;-62
2021/11/03 09:23:52;;;;;;;87.03;48.17;;;;;;;8.82;81.11;95177.94;5028879;28;20460;-63
2021/11/03 09:26:21;;;;;;;84.60;49.53;;;;;;;8.90;82.38;95167.91;5025801;28;20439;-63
2021/11/03 09:28:51;;;;;;;87.10;49.80;;;;;;;9.12;82.02;95162.75;5017660;28;20992;-63
2021/11/03 09:31:18;;;;;;;90.50;51.10;;;;;;;9.13;81.94;95165.09;5016000;28;20551;-63
2021/11/03 09:33:45;;;;;;;89.17;50.17;;;;;;;9.07;80.29;95166.06;5033038;28;20581;-64
2021/11/03 09:36:19;;;;;;;88.50;49.87;;;;;;;9.25;79.41;95177.28;5033172;28;20447;-62
2021/11/03 09:38:47;;;;;;;83.80;48.70;;;;;;;9.26;81.22;95165.78;5012816;28;20548;-65
2021/11/03 09:41:30;;;;;;;93.30;51.70;;;;;;;9.35;80.90;95162.53;5025569;28;20951;-64
2021/11/03 09:43:57;;;;;;;89.43;51.10;;;;;;;9.60;79.86;95159.47;5013133;28;20460;-63
2021/11/03 09:46:37;;;;;;;89.60;50.50;;;;;;;9.56;80.83;95153.91;5012035;28;20445;-64
2021/11/03 09:49:18;;;;;;;92.77;51.57;;;;;;;9.38;80.06;95150.81;5012592;28;20954;-63
2021/11/03 09:52:00;;;;;;;90.33;52.97;;;;;;;9.71;79.41;95140.22;5027633;28;20829;-63
2021/11/03 09:54:35;;;;;;;100.03;55.33;;;;;;;10.05;77.89;95137.22;5032642;28;20455;-62
2021/11/03 09:57:27;;;;;;;107.67;61.00;;;;;;;9.58;80.33;95135.38;5031469;28;20471;-62
2021/11/03 10:00:22;;;;;;;108.17;61.97;;;;;;;9.58;79.11;95135.38;5032265;28;20948;-63
2021/11/03 10:03:25;;;;;;;125.40;68.27;;;;;;;9.27;80.36;95133.41;5023650;28;20459;-64
2021/11/03 10:06:03;;;;;;;135.30;72.03;;;;;;;9.17;81.73;95129.63;5017905;28;20495;-64
2021/11/03 10:08:37;;;;;;;132.63;74.03;;;;;;;9.55;80.61;95120.16;5031880;28;20443;-63
2021/11/03 10:11:12;;;;;;;130.63;72.63;;;;;;;9.85;79.80;95112.69;5032551;28;20447;-62
2021/11/03 10:13:39;;;;;;;143.93;76.23;;;;;;;9.76;79.34;95106.28;5018837;28;20583;-63
2021/11/03 10:16:15;;;;;;;138.57;74.83;;;;;;;9.88;79.16;95099.09;5032119;28;20961;-62
2021/11/03 10:19:05;;;;;;;140.70;78.27;;;;;;;9.65;78.01;95109.81;5022583;28;20455;-62
2021/11/03 10:21:32;;;;;;;135.23;74.37;;;;;;;9.72;78.59;95107.81;5016019;28;20993;-62
2021/11/03 10:23:58;;;;;;;137.47;76.07;;;;;;;10.05;77.24;95105.03;5032243;28;20432;-63
2021/11/03 10:26:52;;;;;;;125.10;71.47;;;;;;;10.00;79.54;95110.19;5030812;28;20456;-63
2021/11/03 10:29:39;;;;;;;127.10;71.50;;;;;;;10.42;77.95;95111.16;5021657;28;20556;-63
2021/11/03 10:32:09;;;;;;;125.43;71.73;;;;;;;10.39;78.90;95100.41;5019264;28;20789;-63
2021/11/03 10:34:35;;;;;;;142.43;78.13;;;;;;;10.50;76.84;95092.38;5031461;28;20541;-64
2021/11/03 10:37:17;;;;;;;152.93;84.80;;;;;;;10.38;77.23;95094.41;5011262;28;20465;-63
2021/11/03 10:39:55;;;;;;;153.50;84.53;;;;;;;10.63;77.63;95088.56;5012819;28;20471;-64
2021/11/03 10:42:31;;;;;;;168.77;91.53;;;;;;;10.75;76.00;95095.19;5030348;28;20941;-63
2021/11/03 10:45:30;;;;;;;160.13;89.60;;;;;;;10.84;75.35;95083.22;5028054;28;20482;-63
2021/11/03 10:48:24;;;;;;;180.40;98.03;;;;;;;10.55;76.13;95083.75;5023078;28;20479;-63
2021/11/03 10:51:17;;;;;;;190.33;101.00;;;;;;;10.59;77.19;95083.03;5020032;28;20443;-64
2021/11/03 10:53:49;;;;;;;182.00;97.50;;;;;;;11.02;75.37;95090.66;5030960;28;20582;-63
2021/11/03 10:56:39;;;;;;;162.47;88.47;;;;;;;11.07;75.39;95082.84;5030672;28;20443;-63
2021/11/03 10:59:18;;;;;;;162.77;88.00;;;;;;;10.87;75.79;95087.16;5031126;28;20535;-64
2021/11/03 11:01:46;;;;;;;159.80;89.17;;;;;;;10.63;75.83;95071.00;5016398;28;20535;-63
2021/11/03 11:04:30;;;;;;;154.90;86.50;;;;;;;10.73;76.71;95080.78;5011836;28;20519;-63
2021/11/03 11:07:20;;;;;;;149.30;87.73;;;;;;;10.85;76.26;95084.00;5024426;28;20483;-63
2021/11/03 11:10:16;;;;;;;146.43;86.13;;;;;;;10.72;76.24;95095.72;5031335;28;20480;-63
2021/11/03 11:12:44;;;;;;;157.43;89.37;;;;;;;10.85;76.37;95079.56;5012063;28;20480;-63
2021/11/03 11:15:18;;;;;;;151.37;89.93;;;;;;;11.20;75.31;95092.88;5023042;28;20448;-63
2021/11/03 11:17:56;;;;;;;155.23;89.40;;;;;;;11.13;75.66;95087.06;5015784;28;20954;-62
2021/11/03 11:20:24;;;;;;;142.00;84.50;;;;;;;11.21;75.25;95089.22;5031579;28;20432;-63
2021/11/03 11:23:11;;;;;;;133.63;81.83;;;;;;;11.29;74.46;95084.53;5030321;28;20447;-63
2021/11/03 11:25:39;;;;;;;139.57;80.50;;;;;;;11.51;74.32;95069.41;5031899;28;20436;-63
2021/11/03 11:28:30;;;;;;;131.00;78.17;;;;;;;12.21;71.90;95056.50;5030057;28;20829;-64
2021/11/03 11:31:29;;;;;;;122.13;71.50;;;;;;;12.38;71.04;95057.06;5030659;28;20444;-64
2021/11/03 11:34:37;;;;;;;128.23;73.43;;;;;;;12.54;71.34;95045.50;5018148;28;20488;-63
2021/11/03 11:37:20;;;;;;;112.83;69.63;;;;;;;13.03;69.25;95048.34;5016524;28;20440;-63